sensor_id;sensor_type;location;lat;lon;timestamp;P1;durP1;ratioP1;P2;durP2;ratioP2
9667;SDS011;4872;48.316;10.650;2022-07-09T04:07:37;6.73;;;3.90;;
9667;SDS011;4872;48.316;10.650;2022-07-09T04:10:06;4.33;;;4.03;;
9667;SDS011;4872;48.316;10.650;2022-07-09T04:12:33;4.70;;;3.83;;
9667;SDS011;4872;48.316;10.650;2022-07-09T04:15:00;4.40;;;4.00;;
9667;SDS011;4872;48.316;10.650;2022-07-09T04:17:26;5.23;;;4.03;;
9667;SDS011;4872;48.316;10.650;2022-07-09T04:19:53;4.37;;;4.07;;
9667;SDS011;4872;48.316;10.650;2022-07-09T04:22:20;4.70;;;3.60;;
9667;SDS011;4872;48.316;10.650;2022-07-09T04:24:48;5.60;;;3.50;;
9667;SDS011;4872;48.316;10.650;2022-07-09T04:27:14;4.73;;;3.83;;
9667;SDS011;4872;48.316;10.650;2022-07-09T04:29:41;4.07;;;3.20;;
9667;SDS011;4872;48.316;10.650;2022-07-09T04:32:08;5.67;;;3.93;;
9667;SDS011;4872;48.316;10.650;2022-07-09T04:34:35;3.53;;;3.20;;
9667;SDS011;4872;48.316;10.650;2022-07-09T04:37:02;6.20;;;3.70;;
9667;SDS011;4872;48.316;10.650;2022-07-09T04:39:29;6.20;;;3.77;;
9667;SDS011;4872;48.316;10.650;2022-07-09T04:41:57;5.40;;;3.83;;
9667;SDS011;4872;48.316;10.650;2022-07-09T04:44:24;4.10;;;3.63;;
9667;SDS011;4872;48.316;10.650;2022-07-09T04:46:50;4.70;;;4.30;;
9667;SDS011;4872;48.316;10.650;2022-07-09T04:49:17;5.97;;;4.13;;
9667;SDS011;4872;48.316;10.650;2022-07-09T04:51:45;5.37;;;3.90;;
9667;SDS011;4872;48.316;10.650;2022-07-09T04:54:12;4.47;;;4.03;;
9667;SDS011;4872;48.316;10.650;2022-07-09T04:56:39;5.27;;;4.17;;
9667;SDS011;4872;48.316;10.650;2022-07-09T04:59:07;7.03;;;4.30;;
9667;SDS011;4872;48.316;10.650;2022-07-09T05:01:34;6.47;;;4.67;;
9667;SDS011;4872;48.316;10.650;2022-07-09T05:04:00;5.93;;;4.03;;
9667;SDS011;4872;48.316;10.650;2022-07-09T05:06:27;5.43;;;3.83;;
9667;SDS011;4872;48.316;10.650;2022-07-09T05:08:54;9.03;;;4.23;;
9667;SDS011;4872;48.316;10.650;2022-07-09T05:11:20;4.27;;;3.87;;
9667;SDS011;4872;48.316;10.650;2022-07-09T05:13:47;4.33;;;4.00;;
9667;SDS011;4872;48.316;10.650;2022-07-09T05:16:15;7.30;;;4.13;;
9667;SDS011;4872;48.316;10.650;2022-07-09T05:18:42;6.53;;;4.00;;
9667;SDS011;4872;48.316;10.650;2022-07-09T05:21:09;7.07;;;4.20;;
9667;SDS011;4872;48.316;10.650;2022-07-09T05:23:36;4.87;;;3.90;;
9667;SDS011;4872;48.316;10.650;2022-07-09T05:26:03;4.87;;;4.40;;
9667;SDS011;4872;48.316;10.650;2022-07-09T05:28:30;7.63;;;4.60;;
9667;SDS011;4872;48.316;10.650;2022-07-09T05:30:56;4.50;;;4.10;;
9667;SDS011;4872;48.316;10.650;2022-07-09T05:33:24;6.00;;;4.63;;
9667;SDS011;4872;48.316;10.650;2022-07-09T05:35:52;6.77;;;4.43;;
9667;SDS011;4872;48.316;10.650;2022-07-09T05:38:19;8.27;;;5.20;;
9667;SDS011;4872;48.316;10.650;2022-07-09T05:40:46;7.23;;;4.67;;
9667;SDS011;4872;48.316;10.650;2022-07-09T05:43:12;5.67;;;4.27;;
9667;SDS011;4872;48.316;10.650;2022-07-09T05:45:39;7.97;;;4.50;;
9667;SDS011;4872;48.316;10.650;2022-07-09T05:48:06;9.83;;;5.17;;
9667;SDS011;4872;48.316;10.650;2022-07-09T05:50:34;7.67;;;4.30;;
9667;SDS011;4872;48.316;10.650;2022-07-09T05:53:00;9.60;;;4.13;;
9667;SDS011;4872;48.316;10.650;2022-07-09T05:55:27;7.03;;;4.70;;
9667;SDS011;4872;48.316;10.650;2022-07-09T05:57:54;7.53;;;4.73;;
9667;SDS011;4872;48.316;10.650;2022-07-09T06:00:20;8.77;;;5.27;;
9667;SDS011;4872;48.316;10.650;2022-07-09T06:02:47;6.73;;;4.77;;
9667;SDS011;4872;48.316;10.650;2022-07-09T06:05:14;7.70;;;4.43;;
9667;SDS011;4872;48.316;10.650;2022-07-09T06:07:45;6.70;;;5.13;;
9667;SDS011;4872;48.316;10.650;2022-07-09T06:10:12;6.57;;;4.97;;
9667;SDS011;4872;48.316;10.650;2022-07-09T06:12:41;6.73;;;4.50;;
9667;SDS011;4872;48.316;10.650;2022-07-09T06:15:09;5.30;;;4.43;;
9667;SDS011;4872;48.316;10.650;2022-07-09T06:17:36;6.60;;;4.67;;
9667;SDS011;4872;48.316;10.650;2022-07-09T06:20:03;4.83;;;4.17;;
9667;SDS011;4872;48.316;10.650;2022-07-09T06:22:31;4.67;;;4.17;;
9667;SDS011;4872;48.316;10.650;2022-07-09T06:24:59;6.20;;;4.13;;
9667;SDS011;4872;48.316;10.650;2022-07-09T06:27:26;4.57;;;4.03;;
9667;SDS011;4872;48.316;10.650;2022-07-09T06:29:53;4.87;;;3.97;;
9667;SDS011;4872;48.316;10.650;2022-07-09T06:32:20;6.30;;;4.00;;
9667;SDS011;4872;48.316;10.650;2022-07-09T06:34:46;6.33;;;4.47;;
9667;SDS011;4872;48.316;10.650;2022-07-09T06:37:13;7.10;;;4.37;;
9667;SDS011;4872;48.316;10.650;2022-07-09T06:39:40;6.13;;;4.10;;
9667;SDS011;4872;48.316;10.650;2022-07-09T06:42:15;5.03;;;3.63;;
9667;SDS011;4872;48.316;10.650;2022-07-09T06:44:43;4.67;;;3.40;;
9667;SDS011;4872;48.316;10.650;2022-07-09T06:47:11;5.83;;;3.70;;
9667;SDS011;4872;48.316;10.650;2022-07-09T06:49:38;5.97;;;3.63;;
9667;SDS011;4872;48.316;10.650;2022-07-09T06:52:06;4.53;;;3.63;;
9667;SDS011;4872;48.316;10.650;2022-07-09T06:54:33;5.20;;;3.10;;
9667;SDS011;4872;48.316;10.650;2022-07-09T06:57:00;4.63;;;3.23;;
9667;SDS011;4872;48.316;10.650;2022-07-09T06:59:29;3.73;;;3.20;;
9667;SDS011;4872;48.316;10.650;2022-07-09T07:01:56;4.57;;;3.07;;
9667;SDS011;4872;48.316;10.650;2022-07-09T07:04:22;5.57;;;3.03;;
9667;SDS011;4872;48.316;10.650;2022-07-09T07:06:50;5.17;;;3.00;;
9667;SDS011;4872;48.316;10.650;2022-07-09T07:09:17;4.37;;;3.13;;
9667;SDS011;4872;48.316;10.650;2022-07-09T07:11:46;3.70;;;2.80;;
9667;SDS011;4872;48.316;10.650;2022-07-09T07:14:13;3.60;;;3.17;;
9667;SDS011;4872;48.316;10.650;2022-07-09T07:16:41;13.17;;;3.50;;
9667;SDS011;4872;48.316;10.650;2022-07-09T07:19:08;4.13;;;2.93;;
9667;SDS011;4872;48.316;10.650;2022-07-09T07:21:36;5.43;;;2.97;;
9667;SDS011;4872;48.316;10.650;2022-07-09T07:24:03;3.20;;;2.70;;
9667;SDS011;4872;48.316;10.650;2022-07-09T07:26:30;4.93;;;2.70;;
9667;SDS011;4872;48.316;10.650;2022-07-09T07:28:57;4.67;;;2.87;;
9667;SDS011;4872;48.316;10.650;2022-07-09T07:31:24;3.20;;;2.90;;
9667;SDS011;4872;48.316;10.650;2022-07-09T07:33:52;6.97;;;2.97;;
9667;SDS011;4872;48.316;10.650;2022-07-09T07:36:19;7.03;;;2.90;;
9667;SDS011;4872;48.316;10.650;2022-07-09T07:38:46;4.77;;;2.13;;
9667;SDS011;4872;48.316;10.650;2022-07-09T07:41:12;2.83;;;2.20;;
9667;SDS011;4872;48.316;10.650;2022-07-09T07:43:41;3.23;;;2.20;;
9667;SDS011;4872;48.316;10.650;2022-07-09T07:46:08;3.60;;;2.47;;
9667;SDS011;4872;48.316;10.650;2022-07-09T07:48:35;6.17;;;2.77;;
9667;SDS011;4872;48.316;10.650;2022-07-09T07:51:04;4.40;;;2.83;;
9667;SDS011;4872;48.316;10.650;2022-07-09T07:53:31;3.97;;;2.47;;
9667;SDS011;4872;48.316;10.650;2022-07-09T07:55:58;4.17;;;2.20;;
9667;SDS011;4872;48.316;10.650;2022-07-09T07:58:25;3.63;;;2.17;;
9667;SDS011;4872;48.316;10.650;2022-07-09T08:00:52;5.53;;;2.43;;
9667;SDS011;4872;48.316;10.650;2022-07-09T08:03:19;4.73;;;2.10;;
9667;SDS011;4872;48.316;10.650;2022-07-09T08:05:46;3.03;;;1.90;;
9667;SDS011;4872;48.316;10.650;2022-07-09T08:08:14;2.80;;;2.03;;
9667;SDS011;4872;48.316;10.650;2022-07-09T08:10:43;3.23;;;2.17;;
9667;SDS011;4872;48.316;10.650;2022-07-09T08:13:10;3.20;;;1.40;;
9667;SDS011;4872;48.316;10.650;2022-07-09T08:15:37;3.83;;;1.80;;
9667;SDS011;4872;48.316;10.650;2022-07-09T08:18:04;3.70;;;1.73;;
9667;SDS011;4872;48.316;10.650;2022-07-09T08:20:33;2.63;;;2.20;;
9667;SDS011;4872;48.316;10.650;2022-07-09T08:23:01;3.27;;;1.90;;
9667;SDS011;4872;48.316;10.650;2022-07-09T08:25:29;4.47;;;1.90;;
9667;SDS011;4872;48.316;10.650;2022-07-09T08:27:56;5.80;;;2.37;;
9667;SDS011;4872;48.316;10.650;2022-07-09T08:30:23;3.03;;;2.20;;
9667;SDS011;4872;48.316;10.650;2022-07-09T08:32:50;3.03;;;1.90;;
9667;SDS011;4872;48.316;10.650;2022-07-09T08:35:16;3.27;;;1.60;;
9667;SDS011;4872;48.316;10.650;2022-07-09T08:37:43;4.13;;;2.07;;
9667;SDS011;4872;48.316;10.650;2022-07-09T08:40:10;4.90;;;2.03;;
9667;SDS011;4872;48.316;10.650;2022-07-09T08:42:39;3.00;;;1.90;;
9667;SDS011;4872;48.316;10.650;2022-07-09T08:45:07;2.73;;;1.70;;
9667;SDS011;4872;48.316;10.650;2022-07-09T08:47:37;2.40;;;1.50;;
9667;SDS011;4872;48.316;10.650;2022-07-09T08:50:05;3.33;;;2.13;;
9667;SDS011;4872;48.316;10.650;2022-07-09T08:52:32;2.10;;;1.77;;
9667;SDS011;4872;48.316;10.650;2022-07-09T08:55:00;2.73;;;1.63;;
9667;SDS011;4872;48.316;10.650;2022-07-09T08:57:27;2.13;;;1.37;;
9667;SDS011;4872;48.316;10.650;2022-07-09T08:59:56;2.43;;;1.77;;
9667;SDS011;4872;48.316;10.650;2022-07-09T09:02:23;3.13;;;1.20;;
9667;SDS011;4872;48.316;10.650;2022-07-09T09:04:49;1.37;;;1.00;;
9667;SDS011;4872;48.316;10.650;2022-07-09T09:07:17;3.97;;;1.80;;
9667;SDS011;4872;48.316;10.650;2022-07-09T09:09:46;2.17;;;1.30;;
9667;SDS011;4872;48.316;10.650;2022-07-09T09:12:13;1.50;;;1.30;;
9667;SDS011;4872;48.316;10.650;2022-07-09T09:14:47;1.40;;;1.30;;
9667;SDS011;4872;48.316;10.650;2022-07-09T09:17:16;1.43;;;1.20;;
9667;SDS011;4872;48.316;10.650;2022-07-09T09:19:43;3.00;;;1.20;;
9667;SDS011;4872;48.316;10.650;2022-07-09T09:22:09;2.60;;;1.50;;
9667;SDS011;4872;48.316;10.650;2022-07-09T09:24:40;2.90;;;1.30;;
9667;SDS011;4872;48.316;10.650;2022-07-09T09:27:08;2.43;;;1.10;;
9667;SDS011;4872;48.316;10.650;2022-07-09T09:29:35;2.87;;;1.43;;
9667;SDS011;4872;48.316;10.650;2022-07-09T09:32:08;2.10;;;1.40;;
9667;SDS011;4872;48.316;10.650;2022-07-09T09:34:38;2.90;;;1.67;;
9667;SDS011;4872;48.316;10.650;2022-07-09T09:37:06;2.73;;;1.43;;
9667;SDS011;4872;48.316;10.650;2022-07-09T09:39:33;1.83;;;1.40;;
9667;SDS011;4872;48.316;10.650;2022-07-09T09:42:01;4.47;;;1.70;;
9667;SDS011;4872;48.316;10.650;2022-07-09T09:44:30;2.87;;;1.57;;
9667;SDS011;4872;48.316;10.650;2022-07-09T09:47:03;2.20;;;1.40;;
9667;SDS011;4872;48.316;10.650;2022-07-09T09:49:32;4.57;;;1.90;;
9667;SDS011;4872;48.316;10.650;2022-07-09T09:52:02;4.50;;;1.60;;
9667;SDS011;4872;48.316;10.650;2022-07-09T09:54:31;4.13;;;2.00;;
9667;SDS011;4872;48.316;10.650;2022-07-09T09:56:58;3.30;;;1.60;;
9667;SDS011;4872;48.316;10.650;2022-07-09T09:59:27;1.97;;;1.70;;
9667;SDS011;4872;48.316;10.650;2022-07-09T10:01:54;4.37;;;1.60;;
9667;SDS011;4872;48.316;10.650;2022-07-09T10:04:21;3.10;;;1.70;;
9667;SDS011;4872;48.316;10.650;2022-07-09T10:06:49;2.77;;;1.20;;
9667;SDS011;4872;48.316;10.650;2022-07-09T10:09:17;1.77;;;1.30;;
9667;SDS011;4872;48.316;10.650;2022-07-09T10:11:45;1.97;;;1.47;;
9667;SDS011;4872;48.316;10.650;2022-07-09T10:14:16;2.13;;;1.67;;
9667;SDS011;4872;48.316;10.650;2022-07-09T10:16:43;1.53;;;1.43;;
9667;SDS011;4872;48.316;10.650;2022-07-09T10:19:10;1.37;;;1.10;;
9667;SDS011;4872;48.316;10.650;2022-07-09T10:21:51;2.73;;;1.33;;
9667;SDS011;4872;48.316;10.650;2022-07-09T10:24:24;1.50;;;0.83;;
9667;SDS011;4872;48.316;10.650;2022-07-09T10:26:52;1.30;;;1.07;;
9667;SDS011;4872;48.316;10.650;2022-07-09T10:29:28;1.10;;;1.00;;
9667;SDS011;4872;48.316;10.650;2022-07-09T10:31:55;1.57;;;1.23;;
9667;SDS011;4872;48.316;10.650;2022-07-09T10:34:36;1.73;;;0.80;;
9667;SDS011;4872;48.316;10.650;2022-07-09T10:37:10;1.10;;;0.97;;
9667;SDS011;4872;48.316;10.650;2022-07-09T10:39:38;1.93;;;1.20;;
9667;SDS011;4872;48.316;10.650;2022-07-09T10:42:06;3.80;;;1.20;;
9667;SDS011;4872;48.316;10.650;2022-07-09T10:44:42;1.73;;;0.93;;
9667;SDS011;4872;48.316;10.650;2022-07-09T10:47:10;2.07;;;0.90;;
9667;SDS011;4872;48.316;10.650;2022-07-09T10:49:37;2.00;;;0.90;;
9667;SDS011;4872;48.316;10.650;2022-07-09T10:52:04;2.50;;;1.00;;
9667;SDS011;4872;48.316;10.650;2022-07-09T10:54:32;1.40;;;1.00;;
9667;SDS011;4872;48.316;10.650;2022-07-09T10:57:01;1.23;;;1.00;;
9667;SDS011;4872;48.316;10.650;2022-07-09T10:59:28;1.50;;;0.90;;
9667;SDS011;4872;48.316;10.650;2022-07-09T11:01:55;1.63;;;0.80;;
9667;SDS011;4872;48.316;10.650;2022-07-09T11:04:31;1.57;;;1.07;;
9667;SDS011;4872;48.316;10.650;2022-07-09T11:06:59;2.20;;;0.90;;
9667;SDS011;4872;48.316;10.650;2022-07-09T11:09:27;2.40;;;1.13;;
9667;SDS011;4872;48.316;10.650;2022-07-09T11:11:55;2.10;;;1.07;;
9667;SDS011;4872;48.316;10.650;2022-07-09T11:14:23;2.50;;;1.00;;
9667;SDS011;4872;48.316;10.650;2022-07-09T11:16:54;2.47;;;0.97;;
9667;SDS011;4872;48.316;10.650;2022-07-09T11:19:23;1.93;;;0.93;;
9667;SDS011;4872;48.316;10.650;2022-07-09T11:21:59;2.13;;;1.10;;
9667;SDS011;4872;48.316;10.650;2022-07-09T11:24:26;1.70;;;0.90;;
9667;SDS011;4872;48.316;10.650;2022-07-09T11:26:54;2.53;;;0.90;;
9667;SDS011;4872;48.316;10.650;2022-07-09T11:29:22;2.10;;;0.93;;
9667;SDS011;4872;48.316;10.650;2022-07-09T11:31:50;3.10;;;1.20;;
9667;SDS011;4872;48.316;10.650;2022-07-09T11:34:17;1.47;;;1.00;;
9667;SDS011;4872;48.316;10.650;2022-07-09T11:36:45;1.10;;;1.00;;
9667;SDS011;4872;48.316;10.650;2022-07-09T11:39:24;1.43;;;1.33;;
9667;SDS011;4872;48.316;10.650;2022-07-09T11:41:52;1.43;;;0.80;;
9667;SDS011;4872;48.316;10.650;2022-07-09T11:44:21;2.67;;;0.90;;
9667;SDS011;4872;48.316;10.650;2022-07-09T11:47:00;2.70;;;0.90;;
9667;SDS011;4872;48.316;10.650;2022-07-09T11:49:31;1.07;;;1.00;;
9667;SDS011;4872;48.316;10.650;2022-07-09T11:51:59;1.73;;;0.83;;
9667;SDS011;4872;48.316;10.650;2022-07-09T11:54:26;3.83;;;2.97;;
9667;SDS011;4872;48.316;10.650;2022-07-09T11:56:53;0.80;;;0.80;;
9667;SDS011;4872;48.316;10.650;2022-07-09T11:59:26;2.50;;;0.80;;
9667;SDS011;4872;48.316;10.650;2022-07-09T12:01:56;2.40;;;1.00;;
9667;SDS011;4872;48.316;10.650;2022-07-09T12:04:28;2.30;;;0.90;;
9667;SDS011;4872;48.316;10.650;2022-07-09T12:06:56;1.40;;;1.13;;
9667;SDS011;4872;48.316;10.650;2022-07-09T12:09:27;0.70;;;0.70;;
9667;SDS011;4872;48.316;10.650;2022-07-09T12:11:55;1.00;;;0.87;;
9667;SDS011;4872;48.316;10.650;2022-07-09T12:14:23;2.07;;;1.00;;
9667;SDS011;4872;48.316;10.650;2022-07-09T12:16:51;1.63;;;0.87;;
9667;SDS011;4872;48.316;10.650;2022-07-09T12:19:17;0.90;;;0.80;;
9667;SDS011;4872;48.316;10.650;2022-07-09T12:21:44;1.43;;;0.87;;
9667;SDS011;4872;48.316;10.650;2022-07-09T12:24:11;1.17;;;0.87;;
9667;SDS011;4872;48.316;10.650;2022-07-09T12:26:38;0.93;;;0.87;;
9667;SDS011;4872;48.316;10.650;2022-07-09T12:29:04;1.20;;;0.90;;
9667;SDS011;4872;48.316;10.650;2022-07-09T12:31:31;2.73;;;0.90;;
9667;SDS011;4872;48.316;10.650;2022-07-09T12:34:02;2.67;;;1.00;;
9667;SDS011;4872;48.316;10.650;2022-07-09T12:36:30;0.83;;;0.70;;
9667;SDS011;4872;48.316;10.650;2022-07-09T12:38:57;2.87;;;0.90;;
9667;SDS011;4872;48.316;10.650;2022-07-09T12:41:23;0.93;;;0.80;;
9667;SDS011;4872;48.316;10.650;2022-07-09T12:43:50;1.07;;;0.90;;
9667;SDS011;4872;48.316;10.650;2022-07-09T12:46:17;1.07;;;0.97;;
9667;SDS011;4872;48.316;10.650;2022-07-09T12:48:44;1.27;;;0.93;;
9667;SDS011;4872;48.316;10.650;2022-07-09T12:51:12;1.50;;;0.97;;
9667;SDS011;4872;48.316;10.650;2022-07-09T12:53:38;1.50;;;0.77;;
9667;SDS011;4872;48.316;10.650;2022-07-09T12:56:05;2.50;;;1.00;;
9667;SDS011;4872;48.316;10.650;2022-07-09T12:58:32;1.77;;;0.90;;
9667;SDS011;4872;48.316;10.650;2022-07-09T13:00:59;1.17;;;0.90;;
9667;SDS011;4872;48.316;10.650;2022-07-09T13:03:26;0.70;;;0.70;;
9667;SDS011;4872;48.316;10.650;2022-07-09T13:05:53;1.17;;;0.70;;
9667;SDS011;4872;48.316;10.650;2022-07-09T13:08:21;2.30;;;0.97;;
9667;SDS011;4872;48.316;10.650;2022-07-09T13:10:47;1.90;;;1.00;;
9667;SDS011;4872;48.316;10.650;2022-07-09T13:13:14;2.03;;;0.90;;
9667;SDS011;4872;48.316;10.650;2022-07-09T13:15:42;1.30;;;0.77;;
9667;SDS011;4872;48.316;10.650;2022-07-09T13:18:09;1.57;;;0.97;;
9667;SDS011;4872;48.316;10.650;2022-07-09T13:20:36;2.13;;;0.87;;
9667;SDS011;4872;48.316;10.650;2022-07-09T13:23:03;1.40;;;0.70;;
9667;SDS011;4872;48.316;10.650;2022-07-09T13:25:31;2.10;;;0.77;;
9667;SDS011;4872;48.316;10.650;2022-07-09T13:27:58;1.20;;;0.80;;
9667;SDS011;4872;48.316;10.650;2022-07-09T13:30:25;0.80;;;0.80;;
9667;SDS011;4872;48.316;10.650;2022-07-09T13:32:52;2.73;;;0.80;;
9667;SDS011;4872;48.316;10.650;2022-07-09T13:35:18;1.50;;;0.83;;
9667;SDS011;4872;48.316;10.650;2022-07-09T13:37:45;0.73;;;0.73;;
9667;SDS011;4872;48.316;10.650;2022-07-09T13:40:12;0.70;;;0.70;;
9667;SDS011;4872;48.316;10.650;2022-07-09T13:42:40;1.40;;;0.90;;
9667;SDS011;4872;48.316;10.650;2022-07-09T13:45:07;1.00;;;1.00;;
9667;SDS011;4872;48.316;10.650;2022-07-09T13:47:34;1.17;;;0.90;;
9667;SDS011;4872;48.316;10.650;2022-07-09T13:50:01;1.93;;;1.10;;
9667;SDS011;4872;48.316;10.650;2022-07-09T13:52:28;1.50;;;0.93;;
9667;SDS011;4872;48.316;10.650;2022-07-09T13:54:55;1.70;;;0.80;;
9667;SDS011;4872;48.316;10.650;2022-07-09T13:57:22;1.00;;;0.80;;
9667;SDS011;4872;48.316;10.650;2022-07-09T13:59:50;1.10;;;1.00;;
9667;SDS011;4872;48.316;10.650;2022-07-09T14:02:16;1.70;;;1.10;;
9667;SDS011;4872;48.316;10.650;2022-07-09T14:04:43;1.50;;;0.90;;
9667;SDS011;4872;48.316;10.650;2022-07-09T14:07:10;2.97;;;1.10;;
9667;SDS011;4872;48.316;10.650;2022-07-09T14:09:37;2.10;;;0.80;;
9667;SDS011;4872;48.316;10.650;2022-07-09T14:12:04;1.87;;;0.93;;
9667;SDS011;4872;48.316;10.650;2022-07-09T14:14:31;1.80;;;0.90;;
9667;SDS011;4872;48.316;10.650;2022-07-09T14:16:59;2.00;;;0.80;;
9667;SDS011;4872;48.316;10.650;2022-07-09T14:19:26;3.20;;;0.80;;
9667;SDS011;4872;48.316;10.650;2022-07-09T14:21:53;3.90;;;1.10;;
9667;SDS011;4872;48.316;10.650;2022-07-09T14:24:20;3.03;;;0.93;;
9667;SDS011;4872;48.316;10.650;2022-07-09T14:26:47;2.67;;;1.00;;
9667;SDS011;4872;48.316;10.650;2022-07-09T14:29:13;1.47;;;0.90;;
9667;SDS011;4872;48.316;10.650;2022-07-09T14:31:40;1.70;;;1.00;;
9667;SDS011;4872;48.316;10.650;2022-07-09T14:34:08;2.00;;;1.00;;
9667;SDS011;4872;48.316;10.650;2022-07-09T14:36:35;1.83;;;0.90;;
9667;SDS011;4872;48.316;10.650;2022-07-09T14:39:02;1.17;;;1.00;;
9667;SDS011;4872;48.316;10.650;2022-07-09T14:41:29;1.33;;;1.00;;
9667;SDS011;4872;48.316;10.650;2022-07-09T14:43:55;2.30;;;1.00;;
9667;SDS011;4872;48.316;10.650;2022-07-09T14:46:22;1.00;;;0.90;;
9667;SDS011;4872;48.316;10.650;2022-07-09T14:48:49;1.80;;;1.00;;
9667;SDS011;4872;48.316;10.650;2022-07-09T14:51:17;1.90;;;1.10;;
9667;SDS011;4872;48.316;10.650;2022-07-09T14:53:44;2.93;;;1.30;;
9667;SDS011;4872;48.316;10.650;2022-07-09T14:56:11;2.00;;;0.90;;
9667;SDS011;4872;48.316;10.650;2022-07-09T14:58:38;3.30;;;1.00;;
9667;SDS011;4872;48.316;10.650;2022-07-09T15:01:05;3.23;;;1.20;;
9667;SDS011;4872;48.316;10.650;2022-07-09T15:03:32;2.40;;;1.27;;
9667;SDS011;4872;48.316;10.650;2022-07-09T15:05:59;1.83;;;1.20;;
9667;SDS011;4872;48.316;10.650;2022-07-09T15:08:27;2.20;;;1.03;;
9667;SDS011;4872;48.316;10.650;2022-07-09T15:10:54;4.17;;;1.13;;
9667;SDS011;4872;48.316;10.650;2022-07-09T15:13:21;1.67;;;1.10;;
9667;SDS011;4872;48.316;10.650;2022-07-09T15:15:48;1.63;;;1.20;;
9667;SDS011;4872;48.316;10.650;2022-07-09T15:18:14;1.47;;;0.80;;
9667;SDS011;4872;48.316;10.650;2022-07-09T15:20:41;1.80;;;0.90;;
9667;SDS011;4872;48.316;10.650;2022-07-09T15:23:08;1.10;;;1.00;;
9667;SDS011;4872;48.316;10.650;2022-07-09T15:25:37;1.63;;;0.97;;
9667;SDS011;4872;48.316;10.650;2022-07-09T15:28:04;2.87;;;0.90;;
9667;SDS011;4872;48.316;10.650;2022-07-09T15:30:31;2.20;;;1.00;;
9667;SDS011;4872;48.316;10.650;2022-07-09T15:32:58;1.17;;;1.00;;
9667;SDS011;4872;48.316;10.650;2022-07-09T15:35:25;1.87;;;1.10;;
9667;SDS011;4872;48.316;10.650;2022-07-09T15:37:52;1.60;;;1.00;;
9667;SDS011;4872;48.316;10.650;2022-07-09T15:40:19;1.03;;;0.97;;
9667;SDS011;4872;48.316;10.650;2022-07-09T15:42:47;2.13;;;1.10;;
9667;SDS011;4872;48.316;10.650;2022-07-09T15:45:14;1.30;;;1.07;;
9667;SDS011;4872;48.316;10.650;2022-07-09T15:47:43;2.30;;;0.90;;
9667;SDS011;4872;48.316;10.650;2022-07-09T15:50:10;2.43;;;1.03;;
9667;SDS011;4872;48.316;10.650;2022-07-09T15:52:37;0.90;;;0.80;;
9667;SDS011;4872;48.316;10.650;2022-07-09T15:55:05;2.30;;;1.10;;
9667;SDS011;4872;48.316;10.650;2022-07-09T15:57:33;0.93;;;0.90;;
9667;SDS011;4872;48.316;10.650;2022-07-09T16:00:01;2.23;;;0.93;;
9667;SDS011;4872;48.316;10.650;2022-07-09T16:02:29;1.47;;;0.90;;
9667;SDS011;4872;48.316;10.650;2022-07-09T16:04:56;2.17;;;0.90;;
9667;SDS011;4872;48.316;10.650;2022-07-09T16:07:23;2.20;;;1.00;;
9667;SDS011;4872;48.316;10.650;2022-07-09T16:09:49;2.30;;;1.10;;
9667;SDS011;4872;48.316;10.650;2022-07-09T16:12:16;1.03;;;1.00;;
9667;SDS011;4872;48.316;10.650;2022-07-09T16:15:02;1.67;;;0.90;;
9667;SDS011;4872;48.316;10.650;2022-07-09T16:17:30;0.90;;;0.80;;
9667;SDS011;4872;48.316;10.650;2022-07-09T16:19:56;2.03;;;1.13;;
9667;SDS011;4872;48.316;10.650;2022-07-09T16:22:23;2.10;;;1.00;;
9667;SDS011;4872;48.316;10.650;2022-07-09T16:24:50;1.43;;;1.10;;
9667;SDS011;4872;48.316;10.650;2022-07-09T16:27:17;1.13;;;0.90;;
9667;SDS011;4872;48.316;10.650;2022-07-09T16:29:43;1.37;;;1.00;;
9667;SDS011;4872;48.316;10.650;2022-07-09T16:32:11;2.93;;;1.13;;
9667;SDS011;4872;48.316;10.650;2022-07-09T16:34:38;1.40;;;0.70;;
9667;SDS011;4872;48.316;10.650;2022-07-09T16:37:05;3.07;;;1.03;;
9667;SDS011;4872;48.316;10.650;2022-07-09T16:39:32;1.73;;;0.93;;
9667;SDS011;4872;48.316;10.650;2022-07-09T16:41:58;1.83;;;1.07;;
9667;SDS011;4872;48.316;10.650;2022-07-09T16:44:25;1.10;;;1.00;;
9667;SDS011;4872;48.316;10.650;2022-07-09T16:46:52;3.00;;;1.23;;
9667;SDS011;4872;48.316;10.650;2022-07-09T16:49:20;1.27;;;1.00;;
9667;SDS011;4872;48.316;10.650;2022-07-09T16:51:47;3.33;;;1.10;;
9667;SDS011;4872;48.316;10.650;2022-07-09T16:54:13;2.03;;;1.00;;
9667;SDS011;4872;48.316;10.650;2022-07-09T16:56:40;1.60;;;0.97;;
9667;SDS011;4872;48.316;10.650;2022-07-09T16:59:07;3.13;;;1.47;;
9667;SDS011;4872;48.316;10.650;2022-07-09T17:01:34;1.57;;;1.23;;
9667;SDS011;4872;48.316;10.650;2022-07-09T17:04:01;2.73;;;1.17;;
9667;SDS011;4872;48.316;10.650;2022-07-09T17:06:30;2.50;;;0.90;;
9667;SDS011;4872;48.316;10.650;2022-07-09T17:08:56;1.60;;;1.10;;
9667;SDS011;4872;48.316;10.650;2022-07-09T17:11:23;2.23;;;1.50;;
9667;SDS011;4872;48.316;10.650;2022-07-09T17:13:50;1.83;;;0.97;;
9667;SDS011;4872;48.316;10.650;2022-07-09T17:16:16;1.90;;;1.20;;
9667;SDS011;4872;48.316;10.650;2022-07-09T17:18:43;1.13;;;1.03;;
9667;SDS011;4872;48.316;10.650;2022-07-09T17:21:10;2.37;;;1.33;;
9667;SDS011;4872;48.316;10.650;2022-07-09T17:23:38;1.93;;;1.10;;
9667;SDS011;4872;48.316;10.650;2022-07-09T17:26:05;1.17;;;1.00;;
9667;SDS011;4872;48.316;10.650;2022-07-09T17:28:31;2.40;;;1.10;;
9667;SDS011;4872;48.316;10.650;2022-07-09T17:30:58;1.97;;;1.10;;
9667;SDS011;4872;48.316;10.650;2022-07-09T17:33:25;1.57;;;0.90;;
9667;SDS011;4872;48.316;10.650;2022-07-09T17:35:51;3.53;;;1.20;;
9667;SDS011;4872;48.316;10.650;2022-07-09T17:38:18;1.40;;;1.30;;
9667;SDS011;4872;48.316;10.650;2022-07-09T17:40:46;1.53;;;1.17;;
9667;SDS011;4872;48.316;10.650;2022-07-09T17:43:15;2.10;;;1.30;;
9667;SDS011;4872;48.316;10.650;2022-07-09T17:45:42;1.40;;;1.07;;
9667;SDS011;4872;48.316;10.650;2022-07-09T17:48:09;1.27;;;1.10;;
9667;SDS011;4872;48.316;10.650;2022-07-09T17:50:35;2.00;;;1.30;;
9667;SDS011;4872;48.316;10.650;2022-07-09T17:53:02;2.27;;;2.00;;
9667;SDS011;4872;48.316;10.650;2022-07-09T17:55:29;2.33;;;1.70;;
9667;SDS011;4872;48.316;10.650;2022-07-09T17:57:58;3.00;;;1.60;;
9667;SDS011;4872;48.316;10.650;2022-07-09T18:00:26;5.20;;;3.30;;
9667;SDS011;4872;48.316;10.650;2022-07-09T18:02:55;2.30;;;2.03;;
9667;SDS011;4872;48.316;10.650;2022-07-09T18:05:22;2.20;;;1.60;;
9667;SDS011;4872;48.316;10.650;2022-07-09T18:07:49;2.63;;;1.50;;
9667;SDS011;4872;48.316;10.650;2022-07-09T18:10:16;2.40;;;1.40;;
9667;SDS011;4872;48.316;10.650;2022-07-09T18:12:42;2.50;;;1.30;;
9667;SDS011;4872;48.316;10.650;2022-07-09T18:15:10;1.40;;;1.20;;
9667;SDS011;4872;48.316;10.650;2022-07-09T18:17:38;2.23;;;1.60;;
9667;SDS011;4872;48.316;10.650;2022-07-09T18:20:06;1.70;;;1.40;;
9667;SDS011;4872;48.316;10.650;2022-07-09T18:22:36;2.67;;;1.43;;
9667;SDS011;4872;48.316;10.650;2022-07-09T18:25:05;2.70;;;1.20;;
9667;SDS011;4872;48.316;10.650;2022-07-09T18:27:32;3.23;;;1.57;;
9667;SDS011;4872;48.316;10.650;2022-07-09T18:29:59;2.33;;;1.90;;
9667;SDS011;4872;48.316;10.650;2022-07-09T18:32:29;2.63;;;1.50;;
9667;SDS011;4872;48.316;10.650;2022-07-09T18:34:55;1.60;;;1.50;;
9667;SDS011;4872;48.316;10.650;2022-07-09T18:37:23;2.67;;;1.50;;
9667;SDS011;4872;48.316;10.650;2022-07-09T18:39:49;2.07;;;1.40;;
9667;SDS011;4872;48.316;10.650;2022-07-09T18:42:16;1.43;;;1.33;;
9667;SDS011;4872;48.316;10.650;2022-07-09T18:44:43;3.23;;;1.60;;
9667;SDS011;4872;48.316;10.650;2022-07-09T18:47:11;6.10;;;1.90;;
9667;SDS011;4872;48.316;10.650;2022-07-09T18:49:40;4.50;;;1.73;;
9667;SDS011;4872;48.316;10.650;2022-07-09T18:52:07;2.83;;;1.43;;
9667;SDS011;4872;48.316;10.650;2022-07-09T18:54:34;2.17;;;1.67;;
9667;SDS011;4872;48.316;10.650;2022-07-09T18:57:01;2.90;;;1.73;;
9667;SDS011;4872;48.316;10.650;2022-07-09T18:59:27;2.97;;;1.73;;
9667;SDS011;4872;48.316;10.650;2022-07-09T19:01:54;1.93;;;1.80;;
9667;SDS011;4872;48.316;10.650;2022-07-09T19:04:21;3.13;;;1.90;;
9667;SDS011;4872;48.316;10.650;2022-07-09T19:06:49;4.40;;;2.67;;
9667;SDS011;4872;48.316;10.650;2022-07-09T19:09:16;4.43;;;2.70;;